Aeroporto :
LOGIN :

Iscrizione | Disclaimer

   EN    FR    IT 

 










Sommario :    VFR   VFR Marginale   IFR   IFR Intensivo   IFR Molto Intensivo
Visibilità : 
Base nubi : 
>= 8 km
>= 3000ft
5 / 8 km
1000 / 3000 ft
1500m / 5 km
500 / 1000 ft
800 / 1500m
200 / 500 ft
< 800m
< 200 ft
Simboli :   Temporali  Nebbia  Neve Forte  Precipitazioni Forti  Vento > 20 kt
SIGMETs :   Varie  Temporali  Ghiacco  Turbolenza  Onda orograficha  Ceneri Vulcaniche






- Altitudine del aeroporto : 512 ft
- Codice IATA : URO


LFOP - Rouen Vallée de Seine

ULTIMO METAR :
  • 140500Z AUTO 09010KT 9999 FEW014 OVC030 13/12 Q1008

METARs OBSOLETI :
  • 140430Z AUTO 08007KT 9999 FEW014/// BKN032/// BKN039/// ///TCU 13/12 Q1009
  • 140400Z AUTO 09009KT 9999 FEW021/// BKN033/// BKN044/// ///CB 13/12 Q1009
  • 140330Z AUTO 09007KT 9999 FEW022 BKN036 OVC043 13/13 Q1010
  • 140300Z AUTO 09008KT 9999 SCT036 BKN044 BKN060 13/13 Q1010

TAF TAF LFOP
Valido dal 13 a 18 ore il 14 a 18 ore UTC


131700Z 1318/1418 VRB03KT 9999 BKN025
TEMPO 1318/1320 3000 RA BKN005 BKN030TCU
PROB40 1323/1404 BKN007
FM140400 09010KT 9999 BKN007 BKN030
TEMPO 1404/1408 2000 RA BR BKN003 BKN050TCU
BECMG 1408/1411 18012KT NSC
TEMPO 1415/1418 4000 SHRA BKN060TCU
PROB40
TEMPO 1417/1418 VRB20G35KT 2000 TSRAGR BKN060CB
ATIS : +33 2 35 80 80 34
Met : +33 2 32 86 52 80



MetMap, La meteo Aeronautica in un colpo d'occhio ! - Copyright ORBIFLY Dicembre 2007 - Disclaimer

ORBIFLY MET'MAP TEAM :

Programmazione e sviluppo : Alexandra Zaïnal
Concezione e sviluppo : Baudouin d'Aumeries
Co-Programmazione e sviluppo : Marc-Olivier Méhu
Supporto tecnico e logistico : Manuel Goepfert
Aiuto per la traduzione : Arnaldo La Scala

Contatto : metmap@orbifly.com




FONTI E CREDITI :

   NOAA